sensor_id;sensor_type;location;lat;lon;timestamp;P1;durP1;ratioP1;P2;durP2;ratioP2
68089;SDS011;54880;50.986;6.990;2023-05-07T00:02:22;10.93;;;5.13;;
68089;SDS011;54880;50.986;6.990;2023-05-07T00:04:48;11.63;;;5.47;;
68089;SDS011;54880;50.986;6.990;2023-05-07T00:07:13;10.75;;;4.93;;
68089;SDS011;54880;50.986;6.990;2023-05-07T00:09:39;12.33;;;4.90;;
68089;SDS011;54880;50.986;6.990;2023-05-07T00:12:04;9.40;;;4.47;;
68089;SDS011;54880;50.986;6.990;2023-05-07T00:14:30;7.65;;;4.03;;
68089;SDS011;54880;50.986;6.990;2023-05-07T00:16:55;8.93;;;4.00;;
68089;SDS011;54880;50.986;6.990;2023-05-07T00:19:21;10.40;;;3.80;;
68089;SDS011;54880;50.986;6.990;2023-05-07T00:21:46;7.80;;;4.07;;
68089;SDS011;54880;50.986;6.990;2023-05-07T00:24:12;8.97;;;3.73;;
68089;SDS011;54880;50.986;6.990;2023-05-07T00:26:37;8.20;;;3.60;;
68089;SDS011;54880;50.986;6.990;2023-05-07T00:29:02;7.37;;;3.50;;
68089;SDS011;54880;50.986;6.990;2023-05-07T00:31:27;11.43;;;3.77;;
68089;SDS011;54880;50.986;6.990;2023-05-07T00:33:52;9.60;;;3.47;;
68089;SDS011;54880;50.986;6.990;2023-05-07T00:36:18;7.97;;;3.80;;
68089;SDS011;54880;50.986;6.990;2023-05-07T00:38:43;7.55;;;3.85;;
68089;SDS011;54880;50.986;6.990;2023-05-07T00:41:08;7.93;;;3.63;;
68089;SDS011;54880;50.986;6.990;2023-05-07T00:43:34;9.00;;;3.85;;
68089;SDS011;54880;50.986;6.990;2023-05-07T00:45:59;8.45;;;3.80;;
68089;SDS011;54880;50.986;6.990;2023-05-07T00:48:25;8.43;;;3.88;;
68089;SDS011;54880;50.986;6.990;2023-05-07T00:50:51;6.93;;;3.20;;
68089;SDS011;54880;50.986;6.990;2023-05-07T00:53:16;8.53;;;3.80;;
68089;SDS011;54880;50.986;6.990;2023-05-07T00:55:41;7.63;;;3.80;;
68089;SDS011;54880;50.986;6.990;2023-05-07T00:58:06;6.90;;;3.63;;
68089;SDS011;54880;50.986;6.990;2023-05-07T01:00:32;8.43;;;4.10;;
68089;SDS011;54880;50.986;6.990;2023-05-07T01:02:57;8.23;;;3.40;;
68089;SDS011;54880;50.986;6.990;2023-05-07T01:05:23;7.73;;;3.60;;
68089;SDS011;54880;50.986;6.990;2023-05-07T01:07:49;8.50;;;3.40;;
68089;SDS011;54880;50.986;6.990;2023-05-07T01:10:15;6.70;;;3.40;;
68089;SDS011;54880;50.986;6.990;2023-05-07T01:12:41;7.20;;;3.10;;
68089;SDS011;54880;50.986;6.990;2023-05-07T01:15:07;6.43;;;3.20;;
68089;SDS011;54880;50.986;6.990;2023-05-07T01:17:33;7.27;;;3.40;;
68089;SDS011;54880;50.986;6.990;2023-05-07T01:19:59;6.45;;;3.08;;
68089;SDS011;54880;50.986;6.990;2023-05-07T01:22:29;9.50;;;3.20;;
68089;SDS011;54880;50.986;6.990;2023-05-07T01:24:55;9.68;;;3.40;;
68089;SDS011;54880;50.986;6.990;2023-05-07T01:27:21;7.45;;;3.08;;
68089;SDS011;54880;50.986;6.990;2023-05-07T01:29:49;9.00;;;2.90;;
68089;SDS011;54880;50.986;6.990;2023-05-07T01:32:14;8.67;;;3.53;;
68089;SDS011;54880;50.986;6.990;2023-05-07T01:34:42;6.93;;;2.78;;
68089;SDS011;54880;50.986;6.990;2023-05-07T01:37:08;6.90;;;3.20;;
68089;SDS011;54880;50.986;6.990;2023-05-07T01:39:33;6.67;;;2.87;;
68089;SDS011;54880;50.986;6.990;2023-05-07T01:41:58;7.33;;;3.17;;
68089;SDS011;54880;50.986;6.990;2023-05-07T01:44:24;6.30;;;2.97;;
68089;SDS011;54880;50.986;6.990;2023-05-07T01:46:51;8.03;;;3.00;;
68089;SDS011;54880;50.986;6.990;2023-05-07T01:49:16;6.75;;;3.00;;
68089;SDS011;54880;50.986;6.990;2023-05-07T01:51:42;7.00;;;3.17;;
68089;SDS011;54880;50.986;6.990;2023-05-07T01:54:07;5.97;;;2.80;;
68089;SDS011;54880;50.986;6.990;2023-05-07T01:56:33;7.00;;;2.80;;
68089;SDS011;54880;50.986;6.990;2023-05-07T01:58:58;6.20;;;2.53;;
68089;SDS011;54880;50.986;6.990;2023-05-07T02:01:24;7.10;;;3.10;;
68089;SDS011;54880;50.986;6.990;2023-05-07T02:03:49;6.32;;;2.53;;
68089;SDS011;54880;50.986;6.990;2023-05-07T02:06:21;6.43;;;3.05;;
68089;SDS011;54880;50.986;6.990;2023-05-07T02:08:46;8.35;;;3.20;;
68089;SDS011;54880;50.986;6.990;2023-05-07T02:11:13;6.80;;;2.90;;
68089;SDS011;54880;50.986;6.990;2023-05-07T02:13:38;7.37;;;3.00;;
68089;SDS011;54880;50.986;6.990;2023-05-07T02:16:04;10.33;;;3.07;;
68089;SDS011;54880;50.986;6.990;2023-05-07T02:18:29;6.07;;;2.60;;
68089;SDS011;54880;50.986;6.990;2023-05-07T02:20:55;6.30;;;2.93;;
68089;SDS011;54880;50.986;6.990;2023-05-07T02:23:20;6.20;;;3.00;;
68089;SDS011;54880;50.986;6.990;2023-05-07T02:25:45;6.80;;;3.00;;
68089;SDS011;54880;50.986;6.990;2023-05-07T02:28:11;8.03;;;2.80;;
68089;SDS011;54880;50.986;6.990;2023-05-07T02:30:46;8.68;;;3.15;;
68089;SDS011;54880;50.986;6.990;2023-05-07T02:33:12;6.33;;;3.00;;
68089;SDS011;54880;50.986;6.990;2023-05-07T02:35:39;7.65;;;3.42;;
68089;SDS011;54880;50.986;6.990;2023-05-07T02:38:05;7.73;;;2.90;;
68089;SDS011;54880;50.986;6.990;2023-05-07T02:40:31;8.40;;;3.20;;
68089;SDS011;54880;50.986;6.990;2023-05-07T02:42:58;12.50;;;2.97;;
68089;SDS011;54880;50.986;6.990;2023-05-07T02:45:24;8.65;;;2.92;;
68089;SDS011;54880;50.986;6.990;2023-05-07T02:47:52;6.95;;;2.67;;
68089;SDS011;54880;50.986;6.990;2023-05-07T02:50:17;6.80;;;2.87;;
68089;SDS011;54880;50.986;6.990;2023-05-07T02:52:42;7.90;;;3.00;;
68089;SDS011;54880;50.986;6.990;2023-05-07T02:55:08;8.98;;;3.17;;
68089;SDS011;54880;50.986;6.990;2023-05-07T02:57:33;7.78;;;3.30;;
68089;SDS011;54880;50.986;6.990;2023-05-07T02:59:58;8.90;;;3.30;;
68089;SDS011;54880;50.986;6.990;2023-05-07T03:02:24;7.13;;;3.20;;
68089;SDS011;54880;50.986;6.990;2023-05-07T03:04:50;7.20;;;3.00;;
68089;SDS011;54880;50.986;6.990;2023-05-07T03:07:15;8.97;;;3.23;;
68089;SDS011;54880;50.986;6.990;2023-05-07T03:09:40;6.80;;;3.10;;
68089;SDS011;54880;50.986;6.990;2023-05-07T03:12:06;7.80;;;2.77;;
68089;SDS011;54880;50.986;6.990;2023-05-07T03:14:31;6.80;;;2.90;;
68089;SDS011;54880;50.986;6.990;2023-05-07T03:16:56;6.80;;;3.00;;
68089;SDS011;54880;50.986;6.990;2023-05-07T03:19:21;8.40;;;2.80;;
68089;SDS011;54880;50.986;6.990;2023-05-07T03:21:47;8.00;;;2.90;;
68089;SDS011;54880;50.986;6.990;2023-05-07T03:24:12;8.00;;;3.20;;
68089;SDS011;54880;50.986;6.990;2023-05-07T03:26:37;9.03;;;3.00;;
68089;SDS011;54880;50.986;6.990;2023-05-07T03:29:03;5.95;;;2.88;;
68089;SDS011;54880;50.986;6.990;2023-05-07T03:31:28;7.60;;;3.20;;
68089;SDS011;54880;50.986;6.990;2023-05-07T03:33:54;6.83;;;2.70;;
68089;SDS011;54880;50.986;6.990;2023-05-07T03:36:20;8.23;;;2.80;;
68089;SDS011;54880;50.986;6.990;2023-05-07T03:38:46;6.17;;;2.63;;
68089;SDS011;54880;50.986;6.990;2023-05-07T03:41:12;6.50;;;3.00;;
68089;SDS011;54880;50.986;6.990;2023-05-07T03:43:38;6.85;;;2.97;;
68089;SDS011;54880;50.986;6.990;2023-05-07T03:46:07;6.70;;;3.25;;
68089;SDS011;54880;50.986;6.990;2023-05-07T03:48:32;6.97;;;3.20;;
68089;SDS011;54880;50.986;6.990;2023-05-07T03:50:58;7.82;;;2.70;;
68089;SDS011;54880;50.986;6.990;2023-05-07T03:53:26;8.80;;;3.65;;
68089;SDS011;54880;50.986;6.990;2023-05-07T03:55:52;9.10;;;3.20;;
68089;SDS011;54880;50.986;6.990;2023-05-07T03:58:17;6.77;;;3.40;;
68089;SDS011;54880;50.986;6.990;2023-05-07T04:00:43;7.37;;;3.07;;
68089;SDS011;54880;50.986;6.990;2023-05-07T04:03:17;8.68;;;3.10;;
68089;SDS011;54880;50.986;6.990;2023-05-07T04:05:43;8.27;;;3.23;;
68089;SDS011;54880;50.986;6.990;2023-05-07T04:08:08;8.43;;;3.00;;
68089;SDS011;54880;50.986;6.990;2023-05-07T04:10:38;8.32;;;3.15;;
68089;SDS011;54880;50.986;6.990;2023-05-07T04:13:07;9.03;;;3.00;;
68089;SDS011;54880;50.986;6.990;2023-05-07T04:15:33;8.07;;;2.90;;
68089;SDS011;54880;50.986;6.990;2023-05-07T04:17:58;7.30;;;3.67;;
68089;SDS011;54880;50.986;6.990;2023-05-07T04:20:24;7.47;;;2.95;;
68089;SDS011;54880;50.986;6.990;2023-05-07T04:22:56;7.10;;;3.17;;
68089;SDS011;54880;50.986;6.990;2023-05-07T04:25:22;6.60;;;3.00;;
68089;SDS011;54880;50.986;6.990;2023-05-07T04:27:52;9.65;;;3.08;;
68089;SDS011;54880;50.986;6.990;2023-05-07T04:30:17;7.00;;;3.10;;
68089;SDS011;54880;50.986;6.990;2023-05-07T04:32:43;7.80;;;3.42;;
68089;SDS011;54880;50.986;6.990;2023-05-07T04:35:09;7.40;;;3.15;;
68089;SDS011;54880;50.986;6.990;2023-05-07T04:37:35;7.95;;;3.30;;
68089;SDS011;54880;50.986;6.990;2023-05-07T04:40:01;10.90;;;3.47;;
68089;SDS011;54880;50.986;6.990;2023-05-07T04:42:28;6.88;;;3.00;;
68089;SDS011;54880;50.986;6.990;2023-05-07T04:44:54;7.18;;;3.08;;
68089;SDS011;54880;50.986;6.990;2023-05-07T04:47:21;7.30;;;3.05;;
68089;SDS011;54880;50.986;6.990;2023-05-07T04:49:47;6.30;;;2.90;;
68089;SDS011;54880;50.986;6.990;2023-05-07T04:52:12;7.23;;;3.30;;
68089;SDS011;54880;50.986;6.990;2023-05-07T04:54:37;7.87;;;2.90;;
68089;SDS011;54880;50.986;6.990;2023-05-07T04:57:03;6.38;;;3.10;;
68089;SDS011;54880;50.986;6.990;2023-05-07T04:59:29;8.05;;;2.92;;
68089;SDS011;54880;50.986;6.990;2023-05-07T05:01:55;7.67;;;3.10;;
68089;SDS011;54880;50.986;6.990;2023-05-07T05:04:20;7.70;;;2.87;;
68089;SDS011;54880;50.986;6.990;2023-05-07T05:06:45;10.10;;;2.87;;
68089;SDS011;54880;50.986;6.990;2023-05-07T05:09:12;7.75;;;2.97;;
68089;SDS011;54880;50.986;6.990;2023-05-07T05:11:39;6.43;;;2.88;;
68089;SDS011;54880;50.986;6.990;2023-05-07T05:14:04;6.03;;;2.80;;
68089;SDS011;54880;50.986;6.990;2023-05-07T05:16:29;5.70;;;3.10;;
68089;SDS011;54880;50.986;6.990;2023-05-07T05:18:55;7.63;;;2.97;;
68089;SDS011;54880;50.986;6.990;2023-05-07T05:21:20;6.83;;;2.97;;
68089;SDS011;54880;50.986;6.990;2023-05-07T05:23:48;7.07;;;2.90;;
68089;SDS011;54880;50.986;6.990;2023-05-07T05:26:17;7.35;;;2.72;;
68089;SDS011;54880;50.986;6.990;2023-05-07T05:28:43;7.22;;;2.53;;
68089;SDS011;54880;50.986;6.990;2023-05-07T05:31:10;6.50;;;3.00;;
68089;SDS011;54880;50.986;6.990;2023-05-07T05:33:35;5.70;;;2.63;;
68089;SDS011;54880;50.986;6.990;2023-05-07T05:36:03;7.20;;;2.80;;
68089;SDS011;54880;50.986;6.990;2023-05-07T05:38:29;9.65;;;2.90;;
68089;SDS011;54880;50.986;6.990;2023-05-07T05:40:54;7.30;;;2.73;;
68089;SDS011;54880;50.986;6.990;2023-05-07T05:43:20;5.80;;;2.78;;
68089;SDS011;54880;50.986;6.990;2023-05-07T05:45:45;8.83;;;3.20;;
68089;SDS011;54880;50.986;6.990;2023-05-07T05:48:11;6.60;;;2.73;;
68089;SDS011;54880;50.986;6.990;2023-05-07T05:50:37;8.02;;;2.90;;
68089;SDS011;54880;50.986;6.990;2023-05-07T05:53:03;6.35;;;2.70;;
68089;SDS011;54880;50.986;6.990;2023-05-07T05:55:28;6.37;;;2.70;;
68089;SDS011;54880;50.986;6.990;2023-05-07T05:57:54;7.27;;;2.80;;
68089;SDS011;54880;50.986;6.990;2023-05-07T06:00:20;8.05;;;2.50;;
68089;SDS011;54880;50.986;6.990;2023-05-07T06:02:54;5.65;;;2.67;;
68089;SDS011;54880;50.986;6.990;2023-05-07T06:05:22;7.20;;;2.37;;
68089;SDS011;54880;50.986;6.990;2023-05-07T06:07:50;8.45;;;2.75;;
68089;SDS011;54880;50.986;6.990;2023-05-07T06:10:16;7.00;;;2.60;;
68089;SDS011;54880;50.986;6.990;2023-05-07T06:12:41;7.00;;;2.80;;
68089;SDS011;54880;50.986;6.990;2023-05-07T06:15:07;7.30;;;2.87;;
68089;SDS011;54880;50.986;6.990;2023-05-07T06:17:32;7.10;;;2.90;;
68089;SDS011;54880;50.986;6.990;2023-05-07T06:19:58;7.90;;;2.43;;
68089;SDS011;54880;50.986;6.990;2023-05-07T06:22:23;9.27;;;2.73;;
68089;SDS011;54880;50.986;6.990;2023-05-07T06:24:48;6.40;;;2.60;;
68089;SDS011;54880;50.986;6.990;2023-05-07T06:27:13;6.70;;;2.47;;
68089;SDS011;54880;50.986;6.990;2023-05-07T06:29:39;6.38;;;2.17;;
68089;SDS011;54880;50.986;6.990;2023-05-07T06:32:11;10.00;;;2.50;;
68089;SDS011;54880;50.986;6.990;2023-05-07T06:34:39;9.03;;;2.30;;
68089;SDS011;54880;50.986;6.990;2023-05-07T06:37:04;6.18;;;2.35;;
68089;SDS011;54880;50.986;6.990;2023-05-07T06:39:46;6.25;;;2.40;;
68089;SDS011;54880;50.986;6.990;2023-05-07T06:42:11;7.30;;;2.30;;
68089;SDS011;54880;50.986;6.990;2023-05-07T06:44:40;6.97;;;2.78;;
68089;SDS011;54880;50.986;6.990;2023-05-07T06:47:14;7.88;;;2.15;;
68089;SDS011;54880;50.986;6.990;2023-05-07T06:49:39;6.30;;;2.20;;
68089;SDS011;54880;50.986;6.990;2023-05-07T06:52:05;8.37;;;2.70;;
68089;SDS011;54880;50.986;6.990;2023-05-07T06:54:30;5.70;;;2.40;;
68089;SDS011;54880;50.986;6.990;2023-05-07T06:56:57;6.68;;;2.40;;
68089;SDS011;54880;50.986;6.990;2023-05-07T06:59:24;5.63;;;2.22;;
68089;SDS011;54880;50.986;6.990;2023-05-07T07:01:50;5.43;;;2.40;;
68089;SDS011;54880;50.986;6.990;2023-05-07T07:04:16;6.68;;;2.50;;
68089;SDS011;54880;50.986;6.990;2023-05-07T07:06:43;5.78;;;2.30;;
68089;SDS011;54880;50.986;6.990;2023-05-07T07:09:11;6.37;;;2.30;;
68089;SDS011;54880;50.986;6.990;2023-05-07T07:11:37;6.65;;;2.00;;
68089;SDS011;54880;50.986;6.990;2023-05-07T07:14:03;7.47;;;2.40;;
68089;SDS011;54880;50.986;6.990;2023-05-07T07:16:32;6.15;;;1.98;;
68089;SDS011;54880;50.986;6.990;2023-05-07T07:18:58;6.90;;;2.10;;
68089;SDS011;54880;50.986;6.990;2023-05-07T07:21:23;6.30;;;2.10;;
68089;SDS011;54880;50.986;6.990;2023-05-07T07:23:48;5.95;;;2.00;;
68089;SDS011;54880;50.986;6.990;2023-05-07T07:26:14;8.27;;;2.20;;
68089;SDS011;54880;50.986;6.990;2023-05-07T07:28:43;5.77;;;2.20;;
68089;SDS011;54880;50.986;6.990;2023-05-07T07:31:09;6.43;;;2.20;;
68089;SDS011;54880;50.986;6.990;2023-05-07T07:33:34;6.10;;;2.13;;
68089;SDS011;54880;50.986;6.990;2023-05-07T07:36:00;6.23;;;2.10;;
68089;SDS011;54880;50.986;6.990;2023-05-07T07:38:25;5.40;;;2.00;;
68089;SDS011;54880;50.986;6.990;2023-05-07T07:40:50;5.25;;;2.28;;
68089;SDS011;54880;50.986;6.990;2023-05-07T07:43:16;5.43;;;1.90;;
68089;SDS011;54880;50.986;6.990;2023-05-07T07:45:42;6.75;;;2.22;;
68089;SDS011;54880;50.986;6.990;2023-05-07T07:48:07;6.90;;;1.70;;
68089;SDS011;54880;50.986;6.990;2023-05-07T07:50:35;7.55;;;2.00;;
68089;SDS011;54880;50.986;6.990;2023-05-07T07:53:01;5.43;;;1.80;;
68089;SDS011;54880;50.986;6.990;2023-05-07T07:55:27;6.13;;;2.10;;
68089;SDS011;54880;50.986;6.990;2023-05-07T07:57:53;8.73;;;2.27;;
68089;SDS011;54880;50.986;6.990;2023-05-07T08:00:18;6.13;;;2.08;;
68089;SDS011;54880;50.986;6.990;2023-05-07T08:02:47;8.23;;;2.10;;
68089;SDS011;54880;50.986;6.990;2023-05-07T08:05:20;6.10;;;1.90;;
68089;SDS011;54880;50.986;6.990;2023-05-07T08:07:47;6.63;;;1.83;;
68089;SDS011;54880;50.986;6.990;2023-05-07T08:10:18;5.63;;;2.10;;
68089;SDS011;54880;50.986;6.990;2023-05-07T08:12:48;6.22;;;2.17;;
68089;SDS011;54880;50.986;6.990;2023-05-07T08:15:14;7.40;;;2.17;;
68089;SDS011;54880;50.986;6.990;2023-05-07T08:17:40;9.65;;;1.83;;
68089;SDS011;54880;50.986;6.990;2023-05-07T08:20:05;5.43;;;2.00;;
68089;SDS011;54880;50.986;6.990;2023-05-07T08:22:31;6.32;;;1.90;;
68089;SDS011;54880;50.986;6.990;2023-05-07T08:24:57;5.30;;;1.90;;
68089;SDS011;54880;50.986;6.990;2023-05-07T08:27:22;7.03;;;2.33;;
68089;SDS011;54880;50.986;6.990;2023-05-07T08:29:47;5.70;;;1.90;;
68089;SDS011;54880;50.986;6.990;2023-05-07T08:32:15;5.95;;;2.00;;
68089;SDS011;54880;50.986;6.990;2023-05-07T08:34:40;5.63;;;2.00;;
68089;SDS011;54880;50.986;6.990;2023-05-07T08:37:06;5.78;;;1.80;;
68089;SDS011;54880;50.986;6.990;2023-05-07T08:39:32;5.50;;;1.88;;
68089;SDS011;54880;50.986;6.990;2023-05-07T08:41:58;7.10;;;2.10;;
68089;SDS011;54880;50.986;6.990;2023-05-07T08:44:26;5.90;;;2.20;;
68089;SDS011;54880;50.986;6.990;2023-05-07T08:46:52;5.87;;;2.03;;
68089;SDS011;54880;50.986;6.990;2023-05-07T08:49:19;5.75;;;2.00;;
68089;SDS011;54880;50.986;6.990;2023-05-07T08:51:45;6.57;;;2.00;;
68089;SDS011;54880;50.986;6.990;2023-05-07T08:54:13;6.55;;;1.90;;
68089;SDS011;54880;50.986;6.990;2023-05-07T08:56:41;5.22;;;1.90;;
68089;SDS011;54880;50.986;6.990;2023-05-07T08:59:06;5.72;;;2.10;;
68089;SDS011;54880;50.986;6.990;2023-05-07T09:01:31;6.27;;;1.90;;
68089;SDS011;54880;50.986;6.990;2023-05-07T09:03:57;6.03;;;1.90;;
68089;SDS011;54880;50.986;6.990;2023-05-07T09:06:24;6.32;;;2.00;;
68089;SDS011;54880;50.986;6.990;2023-05-07T09:08:50;6.80;;;2.20;;
68089;SDS011;54880;50.986;6.990;2023-05-07T09:11:16;5.45;;;1.90;;
68089;SDS011;54880;50.986;6.990;2023-05-07T09:13:44;6.53;;;2.00;;
68089;SDS011;54880;50.986;6.990;2023-05-07T09:16:11;7.22;;;2.17;;
68089;SDS011;54880;50.986;6.990;2023-05-07T09:18:41;5.18;;;2.08;;
68089;SDS011;54880;50.986;6.990;2023-05-07T09:21:09;5.75;;;2.20;;
68089;SDS011;54880;50.986;6.990;2023-05-07T09:23:35;5.20;;;2.08;;
68089;SDS011;54880;50.986;6.990;2023-05-07T09:26:00;7.10;;;1.90;;
68089;SDS011;54880;50.986;6.990;2023-05-07T09:28:29;6.40;;;1.98;;
68089;SDS011;54880;50.986;6.990;2023-05-07T09:30:54;6.50;;;2.20;;
68089;SDS011;54880;50.986;6.990;2023-05-07T09:33:20;8.55;;;2.75;;
68089;SDS011;54880;50.986;6.990;2023-05-07T09:35:51;6.35;;;2.15;;
68089;SDS011;54880;50.986;6.990;2023-05-07T09:38:18;6.60;;;2.17;;
68089;SDS011;54880;50.986;6.990;2023-05-07T09:40:47;6.10;;;2.42;;
68089;SDS011;54880;50.986;6.990;2023-05-07T09:43:14;6.40;;;2.30;;
68089;SDS011;54880;50.986;6.990;2023-05-07T09:45:49;7.75;;;2.30;;
68089;SDS011;54880;50.986;6.990;2023-05-07T09:48:17;6.63;;;2.10;;
68089;SDS011;54880;50.986;6.990;2023-05-07T09:50:49;7.50;;;2.35;;
68089;SDS011;54880;50.986;6.990;2023-05-07T09:53:19;6.63;;;2.00;;
68089;SDS011;54880;50.986;6.990;2023-05-07T09:55:45;9.15;;;2.20;;
68089;SDS011;54880;50.986;6.990;2023-05-07T09:58:11;4.65;;;1.85;;
68089;SDS011;54880;50.986;6.990;2023-05-07T10:00:37;5.60;;;1.60;;
68089;SDS011;54880;50.986;6.990;2023-05-07T10:03:09;5.57;;;1.70;;
68089;SDS011;54880;50.986;6.990;2023-05-07T10:05:49;6.30;;;1.77;;
68089;SDS011;54880;50.986;6.990;2023-05-07T10:08:16;5.20;;;1.70;;
68089;SDS011;54880;50.986;6.990;2023-05-07T10:10:43;6.53;;;1.75;;
68089;SDS011;54880;50.986;6.990;2023-05-07T10:13:12;6.55;;;2.22;;
68089;SDS011;54880;50.986;6.990;2023-05-07T10:15:42;5.27;;;1.40;;
68089;SDS011;54880;50.986;6.990;2023-05-07T10:18:07;7.80;;;1.83;;
68089;SDS011;54880;50.986;6.990;2023-05-07T10:20:34;5.50;;;2.00;;
68089;SDS011;54880;50.986;6.990;2023-05-07T10:23:04;5.55;;;1.98;;
68089;SDS011;54880;50.986;6.990;2023-05-07T10:25:35;8.38;;;2.10;;
68089;SDS011;54880;50.986;6.990;2023-05-07T10:28:07;5.68;;;1.80;;
68089;SDS011;54880;50.986;6.990;2023-05-07T10:33:04;7.75;;;2.00;;
68089;SDS011;54880;50.986;6.990;2023-05-07T10:35:39;4.93;;;1.95;;
68089;SDS011;54880;50.986;6.990;2023-05-07T10:38:05;6.57;;;2.10;;
68089;SDS011;54880;50.986;6.990;2023-05-07T10:40:35;5.40;;;1.80;;
68089;SDS011;54880;50.986;6.990;2023-05-07T10:43:02;4.97;;;1.90;;
68089;SDS011;54880;50.986;6.990;2023-05-07T10:45:36;6.80;;;1.70;;
68089;SDS011;54880;50.986;6.990;2023-05-07T10:50:31;5.00;;;1.85;;
68089;SDS011;54880;50.986;6.990;2023-05-07T10:56:37;5.15;;;1.70;;
68089;SDS011;54880;50.986;6.990;2023-05-07T10:58:43;5.35;;;1.83;;
68089;SDS011;54880;50.986;6.990;2023-05-07T11:01:49;7.22;;;1.70;;
68089;SDS011;54880;50.986;6.990;2023-05-07T11:04:13;5.70;;;2.00;;
68089;SDS011;54880;50.986;6.990;2023-05-07T11:06:43;5.80;;;1.88;;
68089;SDS011;54880;50.986;6.990;2023-05-07T11:09:53;5.28;;;1.83;;
68089;SDS011;54880;50.986;6.990;2023-05-07T11:12:13;5.68;;;1.80;;
68089;SDS011;54880;50.986;6.990;2023-05-07T11:14:48;5.32;;;1.90;;
68089;SDS011;54880;50.986;6.990;2023-05-07T11:17:30;5.10;;;1.80;;
68089;SDS011;54880;50.986;6.990;2023-05-07T11:20:03;5.35;;;1.77;;
68089;SDS011;54880;50.986;6.990;2023-05-07T11:22:46;5.07;;;2.05;;
68089;SDS011;54880;50.986;6.990;2023-05-07T11:25:26;5.70;;;1.80;;
68089;SDS011;54880;50.986;6.990;2023-05-07T11:28:03;6.65;;;1.83;;
68089;SDS011;54880;50.986;6.990;2023-05-07T11:30:29;7.60;;;2.00;;
68089;SDS011;54880;50.986;6.990;2023-05-07T11:32:54;6.10;;;1.90;;
68089;SDS011;54880;50.986;6.990;2023-05-07T11:35:22;7.90;;;1.98;;
68089;SDS011;54880;50.986;6.990;2023-05-07T11:37:48;4.80;;;1.63;;
68089;SDS011;54880;50.986;6.990;2023-05-07T11:40:14;7.78;;;1.92;;
68089;SDS011;54880;50.986;6.990;2023-05-07T11:42:40;5.53;;;1.90;;
68089;SDS011;54880;50.986;6.990;2023-05-07T11:45:07;4.45;;;1.48;;
68089;SDS011;54880;50.986;6.990;2023-05-07T11:47:33;5.72;;;1.90;;
68089;SDS011;54880;50.986;6.990;2023-05-07T11:50:02;6.82;;;1.67;;
68089;SDS011;54880;50.986;6.990;2023-05-07T11:52:28;5.78;;;1.65;;
68089;SDS011;54880;50.986;6.990;2023-05-07T11:54:54;5.77;;;1.80;;
68089;SDS011;54880;50.986;6.990;2023-05-07T11:57:20;5.50;;;1.60;;
68089;SDS011;54880;50.986;6.990;2023-05-07T11:59:52;6.97;;;1.70;;
68089;SDS011;54880;50.986;6.990;2023-05-07T12:02:17;5.25;;;1.83;;
68089;SDS011;54880;50.986;6.990;2023-05-07T12:04:43;4.60;;;1.80;;
68089;SDS011;54880;50.986;6.990;2023-05-07T12:07:12;5.77;;;1.70;;
68089;SDS011;54880;50.986;6.990;2023-05-07T12:09:38;6.35;;;1.60;;
68089;SDS011;54880;50.986;6.990;2023-05-07T12:12:04;5.20;;;2.10;;
68089;SDS011;54880;50.986;6.990;2023-05-07T12:14:29;6.20;;;1.90;;
68089;SDS011;54880;50.986;6.990;2023-05-07T12:16:55;5.82;;;1.83;;
68089;SDS011;54880;50.986;6.990;2023-05-07T12:19:20;6.23;;;1.60;;
68089;SDS011;54880;50.986;6.990;2023-05-07T12:21:45;5.20;;;1.73;;
68089;SDS011;54880;50.986;6.990;2023-05-07T12:24:11;6.10;;;1.80;;
68089;SDS011;54880;50.986;6.990;2023-05-07T12:26:39;6.60;;;1.90;;
68089;SDS011;54880;50.986;6.990;2023-05-07T12:29:05;6.35;;;2.17;;
68089;SDS011;54880;50.986;6.990;2023-05-07T12:31:31;6.80;;;2.10;;
68089;SDS011;54880;50.986;6.990;2023-05-07T12:33:56;6.37;;;1.90;;
68089;SDS011;54880;50.986;6.990;2023-05-07T12:36:21;5.13;;;1.60;;
68089;SDS011;54880;50.986;6.990;2023-05-07T12:38:46;6.63;;;1.80;;
68089;SDS011;54880;50.986;6.990;2023-05-07T12:41:15;5.47;;;2.00;;
68089;SDS011;54880;50.986;6.990;2023-05-07T12:43:42;4.80;;;1.70;;
68089;SDS011;54880;50.986;6.990;2023-05-07T12:46:08;5.50;;;1.90;;
68089;SDS011;54880;50.986;6.990;2023-05-07T12:48:35;6.28;;;2.10;;
68089;SDS011;54880;50.986;6.990;2023-05-07T12:51:01;6.35;;;2.20;;
68089;SDS011;54880;50.986;6.990;2023-05-07T12:53:27;5.75;;;1.83;;
68089;SDS011;54880;50.986;6.990;2023-05-07T12:55:54;6.32;;;2.10;;
68089;SDS011;54880;50.986;6.990;2023-05-07T12:58:20;6.15;;;2.28;;
68089;SDS011;54880;50.986;6.990;2023-05-07T13:00:47;5.18;;;2.00;;
68089;SDS011;54880;50.986;6.990;2023-05-07T13:03:16;6.25;;;2.40;;
68089;SDS011;54880;50.986;6.990;2023-05-07T13:05:45;6.03;;;2.20;;
68089;SDS011;54880;50.986;6.990;2023-05-07T13:08:10;7.33;;;2.20;;
68089;SDS011;54880;50.986;6.990;2023-05-07T13:10:36;6.47;;;1.90;;
68089;SDS011;54880;50.986;6.990;2023-05-07T13:13:01;5.90;;;2.13;;
68089;SDS011;54880;50.986;6.990;2023-05-07T13:15:26;6.63;;;2.07;;
68089;SDS011;54880;50.986;6.990;2023-05-07T13:17:52;4.80;;;1.83;;
68089;SDS011;54880;50.986;6.990;2023-05-07T13:20:17;5.70;;;2.20;;
68089;SDS011;54880;50.986;6.990;2023-05-07T13:22:42;4.90;;;1.80;;
68089;SDS011;54880;50.986;6.990;2023-05-07T13:25:08;6.90;;;2.70;;
68089;SDS011;54880;50.986;6.990;2023-05-07T13:27:33;5.40;;;2.20;;
68089;SDS011;54880;50.986;6.990;2023-05-07T13:30:02;6.05;;;2.53;;
68089;SDS011;54880;50.986;6.990;2023-05-07T13:32:27;6.10;;;2.67;;
68089;SDS011;54880;50.986;6.990;2023-05-07T13:34:52;6.33;;;2.00;;
68089;SDS011;54880;50.986;6.990;2023-05-07T13:37:17;7.23;;;1.80;;
68089;SDS011;54880;50.986;6.990;2023-05-07T13:39:43;5.17;;;2.00;;
68089;SDS011;54880;50.986;6.990;2023-05-07T13:42:08;9.27;;;4.00;;
68089;SDS011;54880;50.986;6.990;2023-05-07T13:44:33;9.33;;;4.23;;
68089;SDS011;54880;50.986;6.990;2023-05-07T13:46:58;6.97;;;2.37;;
68089;SDS011;54880;50.986;6.990;2023-05-07T13:49:24;6.23;;;2.00;;
68089;SDS011;54880;50.986;6.990;2023-05-07T13:51:49;4.80;;;1.60;;
68089;SDS011;54880;50.986;6.990;2023-05-07T13:54:14;5.03;;;1.90;;
68089;SDS011;54880;50.986;6.990;2023-05-07T13:56:40;7.25;;;2.08;;
68089;SDS011;54880;50.986;6.990;2023-05-07T13:59:06;5.53;;;1.80;;
68089;SDS011;54880;50.986;6.990;2023-05-07T14:01:31;5.27;;;1.87;;
68089;SDS011;54880;50.986;6.990;2023-05-07T14:03:56;5.23;;;1.70;;
68089;SDS011;54880;50.986;6.990;2023-05-07T14:06:22;6.45;;;1.80;;
68089;SDS011;54880;50.986;6.990;2023-05-07T14:08:48;5.00;;;1.88;;
68089;SDS011;54880;50.986;6.990;2023-05-07T14:11:13;4.57;;;1.70;;
68089;SDS011;54880;50.986;6.990;2023-05-07T14:13:39;4.87;;;1.47;;
68089;SDS011;54880;50.986;6.990;2023-05-07T14:16:04;5.30;;;1.63;;
68089;SDS011;54880;50.986;6.990;2023-05-07T14:18:30;5.70;;;1.80;;
68089;SDS011;54880;50.986;6.990;2023-05-07T14:20:55;6.23;;;1.87;;
68089;SDS011;54880;50.986;6.990;2023-05-07T14:23:20;4.50;;;1.63;;
68089;SDS011;54880;50.986;6.990;2023-05-07T14:25:51;4.68;;;1.65;;
68089;SDS011;54880;50.986;6.990;2023-05-07T14:28:16;6.07;;;1.77;;
68089;SDS011;54880;50.986;6.990;2023-05-07T14:30:41;7.30;;;1.83;;
68089;SDS011;54880;50.986;6.990;2023-05-07T14:33:07;4.60;;;1.80;;
68089;SDS011;54880;50.986;6.990;2023-05-07T14:35:32;5.87;;;1.87;;
68089;SDS011;54880;50.986;6.990;2023-05-07T14:37:57;6.77;;;1.93;;
68089;SDS011;54880;50.986;6.990;2023-05-07T14:40:22;6.97;;;2.10;;
68089;SDS011;54880;50.986;6.990;2023-05-07T14:42:48;7.80;;;2.20;;
68089;SDS011;54880;50.986;6.990;2023-05-07T14:45:13;8.10;;;2.47;;
68089;SDS011;54880;50.986;6.990;2023-05-07T14:47:38;5.53;;;2.10;;
68089;SDS011;54880;50.986;6.990;2023-05-07T14:50:04;7.33;;;2.60;;
68089;SDS011;54880;50.986;6.990;2023-05-07T14:52:29;10.27;;;2.73;;
68089;SDS011;54880;50.986;6.990;2023-05-07T14:54:54;7.97;;;2.80;;